TimeCDT,TemperatureF,Dew PointF,Humidity,Sea Level PressureIn,VisibilityMPH,Wind Direction,Wind SpeedMPH,Gust SpeedMPH,PrecipitationIn,Events,Conditions,WindDirDegrees,DateUTC
12:17 AM,73.4,68.0,83,30.07,10.0,NNW,6.9,-,0.02,Rain,Light Rain,340,2013-09-12 05:17:00
12:25 AM,75.2,68.0,78,30.07,10.0,NW,10.4,-,0.02,Rain-Thunderstorm,Light Thunderstorms and Rain,320,2013-09-12 05:25:00
12:54 AM,73.0,69.1,87,30.03,6.0,NNE,10.4,-,0.18,Rain,Light Rain,20,2013-09-12 05:54:00
1:54 AM,72.0,69.1,91,30.03,10.0,North,11.5,-,0.00,Rain,Light Rain,10,2013-09-12 06:54:00
2:54 AM,70.0,68.0,93,30.03,3.0,NNE,9.2,-,0.11,Rain,Heavy Rain,20,2013-09-12 07:54:00
3:54 AM,70.0,66.9,90,30.04,3.0,NW,3.5,-,0.14,Rain,Rain,310,2013-09-12 08:54:00
4:00 AM,69.8,66.2,88,30.06,1.8,North,5.8,-,0.09,Rain,Heavy Rain,350,2013-09-12 09:00:00
4:11 AM,69.8,66.2,88,30.07,2.5,NW,5.8,-,0.15,Rain-Thunderstorm,Heavy Rain,320,2013-09-12 09:11:00
4:18 AM,69.8,66.2,88,30.08,5.0,WNW,4.6,-,0.16,Rain-Thunderstorm,Light Thunderstorms and Rain,300,2013-09-12 09:18:00
4:49 AM,69.8,66.2,88,30.08,5.0,NW,9.2,-,0.22,Rain,Rain,320,2013-09-12 09:49:00
4:54 AM,69.1,66.9,93,30.06,5.0,NNW,10.4,-,0.23,Rain,Rain,340,2013-09-12 09:54:00
5:54 AM,68.0,66.0,93,30.05,10.0,SSW,3.5,-,0.02,Rain,Light Rain,210,2013-09-12 10:54:00
6:54 AM,68.0,66.0,93,30.06,10.0,SSW,5.8,-,0.02,Rain,Light Rain,200,2013-09-12 11:54:00
7:54 AM,68.0,66.0,93,30.08,10.0,Calm,Calm,-,0.00,,Scattered Clouds,0,2013-09-12 12:54:00
8:54 AM,70.0,66.9,90,30.06,10.0,WSW,4.6,-,N/A,,Partly Cloudy,240,2013-09-12 13:54:00
9:54 AM,70.0,66.0,87,30.08,10.0,SW,5.8,-,N/A,,Mostly Cloudy,220,2013-09-12 14:54:00
10:54 AM,73.0,66.0,79,30.09,10.0,WSW,9.2,-,N/A,,Mostly Cloudy,250,2013-09-12 15:54:00
11:54 AM,78.1,64.9,64,30.08,10.0,WNW,12.7,18.4,N/A,,Clear,300,2013-09-12 16:54:00
12:54 PM,82.0,64.9,56,30.07,10.0,NNW,12.7,-,N/A,,Clear,330,2013-09-12 17:54:00
1:54 PM,82.9,64.0,53,30.06,10.0,NNW,13.8,-,N/A,,Scattered Clouds,330,2013-09-12 18:54:00
2:54 PM,84.0,53.1,34,30.04,10.0,NNW,13.8,20.7,N/A,,Clear,330,2013-09-12 19:54:00
3:54 PM,84.0,46.9,27,30.03,10.0,NNW,17.3,23.0,N/A,,Clear,330,2013-09-12 20:54:00
4:54 PM,82.9,44.1,25,30.02,10.0,NNW,15.0,-,N/A,,Clear,340,2013-09-12 21:54:00
5:54 PM,80.1,42.1,26,30.03,10.0,NNW,15.0,-,N/A,,Clear,330,2013-09-12 22:54:00
6:54 PM,75.0,46.0,36,30.04,10.0,North,12.7,-,N/A,,Clear,350,2013-09-12 23:54:00
7:54 PM,69.1,46.9,45,30.06,10.0,North,6.9,-,N/A,,Clear,360,2013-09-13 00:54:00
8:54 PM,64.0,48.0,56,30.09,10.0,NNW,6.9,-,N/A,,Clear,340,2013-09-13 01:54:00
9:54 PM,63.0,48.0,58,30.10,10.0,North,8.1,-,N/A,,Clear,350,2013-09-13 02:54:00
10:54 PM,64.0,48.0,56,30.10,10.0,North,9.2,-,N/A,,Clear,360,2013-09-13 03:54:00
11:54 PM,61.0,48.9,64,30.10,10.0,North,9.2,-,N/A,,Clear,360,2013-09-13 04:54:00